Time;durP1;ratioP1;P1;durP2;ratioP2;P2;SDS_P1;SDS_P2;PMS_P1;PMS_P2;Temp;Humidity;BMP_temperature;BMP_pressure;BME280_temperature;BME280_humidity;BME280_pressure;Samples;Min_cycle;Max_cycle;Signal;HPM_P1;HPM_P2
2023/05/14 00:04:25;;;;;;;;;;;;;;;14.75;87.48;101858.69;10541045;28;19924;-66
2023/05/14 00:09:29;;;;;;;;;;;;;;;14.55;89.32;101853.69;10538982;28;19971;-66
2023/05/14 00:14:31;;;;;;;;;;;;;;;14.58;88.24;101853.53;10540464;28;19977;-66
2023/05/14 00:19:33;;;;;;;;;;;;;;;14.47;89.87;101856.75;10539546;28;19932;-66
2023/05/14 00:24:36;;;;;;;;;;;;;;;14.13;92.61;101856.03;10550873;28;20370;-66
2023/05/14 00:29:38;;;;;;;;;;;;;;;14.37;91.69;101852.94;10563705;28;19930;-66
2023/05/14 00:34:40;;;;;;;;;;;;;;;14.09;93.63;101851.88;10582135;28;20344;-66
2023/05/14 00:39:43;;;;;;;;;;;;;;;13.78;94.00;101847.44;10542769;28;19928;-66
2023/05/14 00:44:45;;;;;;;;;;;;;;;14.07;95.42;101844.06;10562175;28;19977;-66
2023/05/14 00:49:47;;;;;;;;;;;;;;;14.05;91.91;101837.16;10582560;28;19923;-66
2023/05/14 00:54:49;;;;;;;;;;;;;;;13.89;95.96;101834.53;10549080;28;19969;-65
2023/05/14 00:59:51;;;;;;;;;;;;;;;14.06;94.90;101836.25;10545040;28;19947;-67
2023/05/14 01:04:54;;;;;;;;;;;;;;;14.01;93.10;101830.38;10582200;28;19924;-66
2023/05/14 01:10:02;;;;;;;;;;;;;;;13.90;94.13;101834.47;10542986;28;19923;-66
2023/05/14 01:15:07;;;;;;;;;;;;;;;13.72;94.98;101824.94;10590535;28;19924;-66
2023/05/14 01:20:10;;;;;;;;;;;;;;;13.70;96.46;101826.78;10530626;28;19969;-66
2023/05/14 01:25:12;;;;;;;;;;;;;;;13.52;95.79;101831.28;10564677;28;19947;-66
2023/05/14 01:30:21;;;;;;;;;;;;;;;13.43;97.68;101831.75;10549045;28;19928;-66
2023/05/14 01:35:25;;;;;;;;;;;;;;;13.36;99.11;101823.34;10587383;28;19971;-66
2023/05/14 01:40:27;;;;;;;;;;;;;;;13.46;97.12;101823.69;10553519;28;20271;-66
2023/05/14 01:45:29;;;;;;;;;;;;;;;13.78;97.13;101816.69;10544278;28;19924;-66
2023/05/14 01:50:31;;;;;;;;;;;;;;;13.50;98.03;101815.56;10546829;28;19924;-66
2023/05/14 01:55:33;;;;;;;;;;;;;;;13.52;97.33;101810.22;10545416;28;20278;-66
2023/05/14 02:00:37;;;;;;;;;;;;;;;13.14;99.32;101816.53;10546492;28;19924;-67
2023/05/14 02:05:39;;;;;;;;;;;;;;;13.37;97.25;101810.09;10558951;28;19947;-66
2023/05/14 02:10:41;;;;;;;;;;;;;;;12.98;100.00;101818.28;10545482;28;20321;-66
2023/05/14 02:15:43;;;;;;;;;;;;;;;12.91;100.00;101814.22;10544254;28;19932;-66
2023/05/14 02:20:45;;;;;;;;;;;;;;;12.88;100.00;101806.50;10582644;28;19924;-66
2023/05/14 02:25:48;;;;;;;;;;;;;;;13.00;100.00;101796.22;10571151;28;20336;-66
2023/05/14 02:30:50;;;;;;;;;;;;;;;12.73;100.00;101792.38;10586304;28;19923;-67
2023/05/14 02:35:52;;;;;;;;;;;;;;;12.73;100.00;101797.66;10579674;28;20315;-66
2023/05/14 02:40:55;;;;;;;;;;;;;;;12.71;100.00;101789.84;10591619;22;20393;-62
2023/05/14 02:45:57;;;;;;;;;;;;;;;12.51;100.00;101792.59;10585764;28;19928;-61
2023/05/14 02:50:59;;;;;;;;;;;;;;;12.52;100.00;101784.63;10586696;28;19923;-61
2023/05/14 02:56:01;;;;;;;;;;;;;;;12.34;100.00;101794.28;10584759;28;20378;-62
2023/05/14 03:01:03;;;;;;;;;;;;;;;12.11;100.00;101795.41;10585561;28;20430;-62
2023/05/14 03:06:05;;;;;;;;;;;;;;;12.15;100.00;101791.69;10584864;28;19924;-62
2023/05/14 03:11:08;;;;;;;;;;;;;;;12.03;100.00;101787.88;10585163;28;19924;-62
2023/05/14 03:16:10;;;;;;;;;;;;;;;11.90;100.00;101798.09;10581393;28;20121;-62
2023/05/14 03:21:12;;;;;;;;;;;;;;;11.94;100.00;101780.47;10574894;28;19928;-62
2023/05/14 03:26:14;;;;;;;;;;;;;;;11.80;100.00;101777.59;10583311;28;19985;-62
2023/05/14 03:31:17;;;;;;;;;;;;;;;11.64;100.00;101782.72;10584655;28;19937;-61
2023/05/14 03:36:19;;;;;;;;;;;;;;;11.57;100.00;101770.81;10582290;28;19955;-61
2023/05/14 03:41:21;;;;;;;;;;;;;;;11.47;100.00;101767.75;10582976;28;19924;-61
2023/05/14 03:46:24;;;;;;;;;;;;;;;11.48;100.00;101762.44;10583660;28;19977;-62
2023/05/14 03:51:26;;;;;;;;;;;;;;;11.72;100.00;101764.84;10584260;28;19931;-62
2023/05/14 03:56:28;;;;;;;;;;;;;;;11.67;100.00;101769.47;10582446;28;20344;-62
2023/05/14 04:01:30;;;;;;;;;;;;;;;11.74;100.00;101767.41;10582402;28;19930;-62
2023/05/14 04:06:32;;;;;;;;;;;;;;;11.87;100.00;101764.13;10582784;28;19928;-61
2023/05/14 04:11:34;;;;;;;;;;;;;;;11.73;100.00;101768.31;10581990;28;20366;-62
2023/05/14 04:16:37;;;;;;;;;;;;;;;11.87;100.00;101758.03;10580926;28;19940;-62
2023/05/14 04:21:39;;;;;;;;;;;;;;;11.66;100.00;101758.09;10582688;28;19924;-62
2023/05/14 04:26:41;;;;;;;;;;;;;;;11.50;100.00;101762.38;10581469;28;20375;-62
2023/05/14 04:31:44;;;;;;;;;;;;;;;11.62;100.00;101759.19;10564133;28;19923;-62
2023/05/14 04:36:46;;;;;;;;;;;;;;;11.82;100.00;101765.28;10581556;28;19923;-62
2023/05/14 04:41:48;;;;;;;;;;;;;;;11.90;100.00;101770.97;10582107;28;19928;-62
2023/05/14 04:46:50;;;;;;;;;;;;;;;11.80;100.00;101772.34;10581357;28;19923;-62
2023/05/14 04:51:52;;;;;;;;;;;;;;;11.87;100.00;101771.16;10580990;28;20287;-62
2023/05/14 04:56:55;;;;;;;;;;;;;;;11.93;100.00;101760.38;10580539;28;20332;-62
2023/05/14 05:01:57;;;;;;;;;;;;;;;12.18;100.00;101767.06;10581697;28;19949;-62
2023/05/14 05:06:59;;;;;;;;;;;;;;;12.29;100.00;101775.28;10562423;28;20444;-62
2023/05/14 05:12:02;;;;;;;;;;;;;;;12.50;100.00;101775.16;10581493;28;20385;-62
2023/05/14 05:17:04;;;;;;;;;;;;;;;12.48;100.00;101771.75;10580262;28;19928;-62
2023/05/14 05:22:06;;;;;;;;;;;;;;;12.67;100.00;101772.50;10580306;28;19930;-62
2023/05/14 05:27:08;;;;;;;;;;;;;;;12.73;100.00;101772.22;10581333;28;19923;-62
2023/05/14 05:32:11;;;;;;;;;;;;;;;12.81;100.00;101772.66;10581240;28;19974;-62
2023/05/14 05:37:13;;;;;;;;;;;;;;;13.00;100.00;101764.69;10580207;28;19973;-62
2023/05/14 05:42:16;;;;;;;;;;;;;;;13.13;100.00;101769.28;10581751;28;19950;-62
2023/05/14 05:47:18;;;;;;;;;;;;;;;13.16;100.00;101769.13;10580963;28;19923;-62
2023/05/14 05:52:20;;;;;;;;;;;;;;;13.20;100.00;101770.69;10580468;28;19970;-63
2023/05/14 05:57:22;;;;;;;;;;;;;;;13.37;100.00;101770.66;10583988;28;19927;-62
2023/05/14 06:02:27;;;;;;;;;;;;;;;13.32;100.00;101775.31;10588824;28;20018;-62
2023/05/14 06:07:29;;;;;;;;;;;;;;;13.38;100.00;101768.84;10588439;28;19928;-62
2023/05/14 06:12:31;;;;;;;;;;;;;;;13.35;100.00;101776.94;10586632;28;19923;-62
2023/05/14 06:17:34;;;;;;;;;;;;;;;13.43;100.00;101771.25;10586921;28;19924;-62
2023/05/14 06:22:36;;;;;;;;;;;;;;;13.54;100.00;101779.41;10587888;28;19923;-62
2023/05/14 06:27:39;;;;;;;;;;;;;;;13.60;100.00;101780.84;10587826;28;19924;-62
2023/05/14 06:32:41;;;;;;;;;;;;;;;13.82;100.00;101780.53;10586119;28;20336;-62
2023/05/14 06:37:44;;;;;;;;;;;;;;;13.82;100.00;101783.16;10585089;28;19928;-62
2023/05/14 06:42:46;;;;;;;;;;;;;;;13.79;100.00;101783.34;10585862;28;20301;-62
2023/05/14 06:47:48;;;;;;;;;;;;;;;14.41;98.01;101773.66;10586363;28;19977;-63
2023/05/14 06:52:50;;;;;;;;;;;;;;;14.33;96.04;101777.69;10586659;28;19923;-62
2023/05/14 06:57:52;;;;;;;;;;;;;;;14.21;98.29;101764.28;10583454;28;19924;-62
2023/05/14 07:02:54;;;;;;;;;;;;;;;14.60;95.58;101769.97;10586347;28;19923;-62
2023/05/14 07:07:57;;;;;;;;;;;;;;;15.03;91.01;101765.63;10563534;28;19928;-62
2023/05/14 07:12:59;;;;;;;;;;;;;;;15.96;89.66;101763.34;10571186;28;19976;-62
2023/05/14 07:18:01;;;;;;;;;;;;;;;16.04;87.78;101769.91;10569605;28;19931;-62
2023/05/14 07:23:03;;;;;;;;;;;;;;;16.80;84.41;101761.31;10556113;28;19934;-63
2023/05/14 07:28:06;;;;;;;;;;;;;;;16.98;81.42;101751.31;10585342;28;19977;-62
2023/05/14 07:33:08;;;;;;;;;;;;;;;17.10;81.39;101760.19;10581821;28;19924;-63
2023/05/14 07:38:10;;;;;;;;;;;;;;;17.82;77.33;101751.56;10577718;28;20366;-63
2023/05/14 07:43:12;;;;;;;;;;;;;;;17.99;76.71;101751.19;10582210;28;19924;-62
2023/05/14 07:48:15;;;;;;;;;;;;;;;18.16;74.21;101749.09;10573478;28;19977;-62
2023/05/14 07:53:17;;;;;;;;;;;;;;;18.99;72.21;101736.66;10578919;28;20293;-63
2023/05/14 07:58:19;;;;;;;;;;;;;;;19.11;70.51;101748.97;10577231;28;20312;-62
2023/05/14 08:03:21;;;;;;;;;;;;;;;17.95;73.62;101738.28;10580057;28;19968;-63
2023/05/14 08:08:24;;;;;;;;;;;;;;;19.03;71.51;101738.97;10565058;28;19943;-62
2023/05/14 08:13:26;;;;;;;;;;;;;;;19.52;70.68;101736.00;10544969;28;20024;-63
2023/05/14 08:18:28;;;;;;;;;;;;;;;19.49;68.71;101729.13;10546413;28;19931;-63
2023/05/14 08:23:30;;;;;;;;;;;;;;;20.66;66.73;101732.81;10509172;28;19928;-62
2023/05/14 08:28:32;;;;;;;;;;;;;;;20.36;66.33;101745.06;10553041;28;19950;-63
2023/05/14 08:33:35;;;;;;;;;;;;;;;20.42;68.09;101743.69;10563529;28;20374;-63
2023/05/14 08:38:37;;;;;;;;;;;;;;;21.22;64.48;101730.69;10559367;28;20386;-63
2023/05/14 08:43:54;;;;;;;;;;;;;;;20.23;63.57;101736.41;10563983;28;19927;-63
2023/05/14 08:48:59;;;;;;;;;;;;;;;20.91;63.23;101736.00;10571898;28;20413;-63
2023/05/14 08:54:02;;;;;;;;;;;;;;;20.51;65.51;101728.75;10561829;28;19970;-63
2023/05/14 08:59:04;;;;;;;;;;;;;;;21.87;61.01;101728.44;10579802;28;19973;-63
2023/05/14 09:04:07;;;;;;;;;;;;;;;21.28;60.58;101722.13;10580035;28;19931;-63
2023/05/14 09:09:10;;;;;;;;;;;;;;;21.11;61.58;101727.13;10582279;28;19924;-63
2023/05/14 09:14:12;;;;;;;;;;;;;;;22.42;60.58;101717.22;10581440;28;20336;-63
2023/05/14 09:19:14;;;;;;;;;;;;;;;22.61;63.11;101709.16;10582115;28;19973;-63
2023/05/14 09:24:20;;;;;;;;;;;;;;;23.91;57.46;101705.53;10563391;28;20374;-63
2023/05/14 09:29:26;;;;;;;;;;;;;;;23.45;59.09;101702.06;10582739;28;19924;-63
2023/05/14 09:34:30;;;;;;;;;;;;;;;22.87;59.52;101703.19;10589315;28;19947;-63
2023/05/14 09:39:32;;;;;;;;;;;;;;;21.84;59.47;101700.25;10589173;28;19924;-63
2023/05/14 09:44:36;;;;;;;;;;;;;;;22.30;58.97;101683.69;10589544;28;20041;-63
2023/05/14 09:49:39;;;;;;;;;;;;;;;24.29;56.18;101679.44;10589349;28;19970;-63
2023/05/14 09:54:41;;;;;;;;;;;;;;;24.42;55.61;101680.84;10589100;28;19928;-63
2023/05/14 09:59:43;;;;;;;;;;;;;;;25.34;53.59;101675.78;10570862;28;19927;-63
2023/05/14 10:04:45;;;;;;;;;;;;;;;24.57;54.52;101675.78;10588142;28;20327;-63
2023/05/14 10:09:47;;;;;;;;;;;;;;;24.94;55.13;101670.09;10569923;28;20297;-63
2023/05/14 10:14:52;;;;;;;;;;;;;;;24.10;52.02;101667.06;10570269;28;19923;-63
2023/05/14 10:19:55;;;;;;;;;;;;;;;24.47;52.71;101665.97;10587456;28;19928;-63
2023/05/14 10:24:57;;;;;;;;;;;;;;;24.27;50.57;101659.16;10570013;28;19930;-63
2023/05/14 10:29:59;;;;;;;;;;;;;;;26.91;52.22;101655.84;10569077;28;20328;-63
2023/05/14 10:35:05;;;;;;;;;;;;;;;26.08;47.59;101647.16;10587577;28;19931;-63
2023/05/14 10:40:08;;;;;;;;;;;;;;;26.98;48.88;101635.34;10568543;28;19973;-64
2023/05/14 10:45:12;;;;;;;;;;;;;;;26.65;46.75;101642.72;10586531;28;19924;-63
2023/05/14 10:50:14;;;;;;;;;;;;;;;27.88;44.95;101641.09;10586828;28;19973;-63
2023/05/14 10:55:16;;;;;;;;;;;;;;;26.49;46.41;101630.97;10586770;28;19954;-63
2023/05/14 11:00:19;;;;;;;;;;;;;;;28.26;47.24;101625.78;10568550;28;19969;-63
2023/05/14 11:05:21;;;;;;;;;;;;;;;26.23;44.14;101619.66;10586333;28;19924;-63
2023/05/14 11:10:29;;;;;;;;;;;;;;;27.86;44.65;101619.75;10586111;28;19954;-63
2023/05/14 11:15:31;;;;;;;;;;;;;;;26.81;41.32;101610.38;10585266;28;19923;-63
2023/05/14 11:20:33;;;;;;;;;;;;;;;27.98;42.45;101612.94;10566916;28;19924;-63
2023/05/14 11:25:35;;;;;;;;;;;;;;;27.54;44.52;101608.28;10567389;28;19924;-63
2023/05/14 11:30:38;;;;;;;;;;;;;;;27.63;38.96;101598.28;10584592;28;19923;-63
2023/05/14 11:35:41;;;;;;;;;;;;;;;29.03;39.70;101591.31;10585058;28;19927;-64
2023/05/14 11:40:51;;;;;;;;;;;;;;;29.37;39.33;101589.81;10566273;28;19927;-63
2023/05/14 11:45:54;;;;;;;;;;;;;;;27.85;38.15;101580.41;10584005;28;19931;-63
2023/05/14 11:50:56;;;;;;;;;;;;;;;28.60;35.55;101570.53;10584465;28;19924;-63
2023/05/14 11:55:58;;;;;;;;;;;;;;;27.62;35.08;101580.44;10565244;28;19973;-63
2023/05/14 12:01:00;;;;;;;;;;;;;;;28.65;35.19;101565.41;10583560;28;19924;-63
2023/05/14 12:06:05;;;;;;;;;;;;;;;28.41;35.00;101561.16;10584002;28;19924;-63
2023/05/14 12:11:08;;;;;;;;;;;;;;;29.01;34.38;101556.47;10583742;28;19923;-62
2023/05/14 12:16:10;;;;;;;;;;;;;;;29.41;32.75;101561.44;10582996;28;19924;-63
2023/05/14 12:21:12;;;;;;;;;;;;;;;28.99;36.63;101555.00;10583503;28;19930;-63
2023/05/14 12:26:14;;;;;;;;;;;;;;;27.20;42.06;101554.88;10583317;28;19924;-63
2023/05/14 12:31:17;;;;;;;;;;;;;;;28.44;40.40;101546.47;10583075;28;19927;-62
2023/05/14 12:36:19;;;;;;;;;;;;;;;29.41;40.86;101538.00;10582315;28;20267;-63
2023/05/14 12:41:23;;;;;;;;;;;;;;;28.17;41.60;101536.19;10582086;28;19927;-63
2023/05/14 12:46:26;;;;;;;;;;;;;;;26.56;40.09;101537.13;10582782;28;19924;-63
2023/05/14 12:51:28;;;;;;;;;;;;;;;26.99;41.16;101542.13;10582027;28;19924;-63
2023/05/14 12:56:30;;;;;;;;;;;;;;;26.42;41.24;101527.13;10582010;28;19923;-63
2023/05/14 13:01:33;;;;;;;;;;;;;;;26.78;41.69;101522.13;10563822;28;20282;-63
2023/05/14 13:06:35;;;;;;;;;;;;;;;26.94;43.28;101521.16;10586969;28;19923;-63
2023/05/14 13:11:37;;;;;;;;;;;;;;;28.10;43.03;101519.13;10590299;28;19927;-63
2023/05/14 13:16:40;;;;;;;;;;;;;;;26.94;41.44;101515.78;10590738;28;19977;-63
2023/05/14 13:21:42;;;;;;;;;;;;;;;26.66;40.19;101508.25;10589767;28;20286;-63
2023/05/14 13:26:44;;;;;;;;;;;;;;;26.35;41.20;101504.69;10589670;28;19986;-63
2023/05/14 13:31:46;;;;;;;;;;;;;;;26.00;42.16;101499.63;10589392;28;19946;-63
2023/05/14 13:36:49;;;;;;;;;;;;;;;26.41;39.88;101498.59;10589955;28;19923;-63
2023/05/14 13:41:54;;;;;;;;;;;;;;;26.20;40.42;101502.72;10588993;28;19923;-64
2023/05/14 13:46:56;;;;;;;;;;;;;;;26.78;41.79;101500.63;10589566;28;19924;-63
2023/05/14 13:51:59;;;;;;;;;;;;;;;26.32;43.38;101503.19;10588669;28;20266;-63
2023/05/14 13:57:01;;;;;;;;;;;;;;;26.39;41.95;101495.28;10588572;28;20370;-63
2023/05/14 14:02:03;;;;;;;;;;;;;;;25.88;46.43;101488.38;10588372;28;19924;-63
2023/05/14 14:07:05;;;;;;;;;;;;;;;24.12;46.45;101493.03;10585770;28;19977;-63
2023/05/14 14:12:08;;;;;;;;;;;;;;;25.10;46.06;101487.13;10584901;28;19977;-63
2023/05/14 14:17:10;;;;;;;;;;;;;;;25.25;44.84;101479.28;10584383;28;19924;-63
2023/05/14 14:22:16;;;;;;;;;;;;;;;24.43;43.36;101468.44;10585647;28;20362;-63
2023/05/14 14:27:18;;;;;;;;;;;;;;;25.20;42.94;101461.00;10569742;28;20370;-63
2023/05/14 14:32:20;;;;;;;;;;;;;;;24.28;42.74;101460.19;10587660;28;19969;-63
2023/05/14 14:37:22;;;;;;;;;;;;;;;24.71;43.95;101465.50;10582119;28;20286;-63
2023/05/14 14:42:24;;;;;;;;;;;;;;;24.50;42.84;101458.72;10570614;28;20279;-63
2023/05/14 14:47:27;;;;;;;;;;;;;;;25.02;44.03;101457.66;10567693;28;19950;-63
2023/05/14 14:52:30;;;;;;;;;;;;;;;24.49;43.49;101457.03;10553610;22;19945;-63
2023/05/14 14:57:32;;;;;;;;;;;;;;;23.90;43.49;101449.81;10584215;28;19969;-63
2023/05/14 15:02:37;;;;;;;;;;;;;;;24.60;43.26;101455.94;10584809;28;19970;-63
2023/05/14 15:07:39;;;;;;;;;;;;;;;23.92;44.27;101449.66;10574915;28;19966;-63
2023/05/14 15:12:41;;;;;;;;;;;;;;;23.44;45.48;101457.22;10585371;28;19927;-63
2023/05/14 15:17:44;;;;;;;;;;;;;;;23.33;44.87;101442.28;10585797;28;19924;-62
2023/05/14 15:22:46;;;;;;;;;;;;;;;23.56;46.99;101439.09;10585754;28;19936;-62
2023/05/14 15:27:49;;;;;;;;;;;;;;;24.35;46.48;101436.28;10567091;28;19923;-63
2023/05/14 15:32:51;;;;;;;;;;;;;;;23.56;46.49;101439.09;10584615;28;20419;-63
2023/05/14 15:37:54;;;;;;;;;;;;;;;23.06;47.67;101435.22;10585130;28;19974;-62
2023/05/14 15:42:56;;;;;;;;;;;;;;;22.61;48.88;101436.97;10584837;28;19931;-63
2023/05/14 15:48:00;;;;;;;;;;;;;;;22.60;47.80;101443.28;10583329;28;20562;-63
2023/05/14 15:53:02;;;;;;;;;;;;;;;22.52;49.42;101429.84;10581774;28;19931;-63
2023/05/14 15:58:05;;;;;;;;;;;;;;;21.64;50.65;101435.59;10582805;28;19985;-63
2023/05/14 16:03:07;;;;;;;;;;;;;;;21.48;51.00;101428.19;10583009;28;19924;-62
2023/05/14 16:08:09;;;;;;;;;;;;;;;21.18;52.70;101431.88;10581747;28;20021;-63
2023/05/14 16:13:12;;;;;;;;;;;;;;;21.00;53.12;101428.25;10581784;28;20317;-63
2023/05/14 16:18:14;;;;;;;;;;;;;;;20.94;53.06;101432.31;10583571;28;19939;-63
2023/05/14 16:23:16;;;;;;;;;;;;;;;21.26;53.88;101434.66;10583468;28;19935;-63
2023/05/14 16:28:19;;;;;;;;;;;;;;;21.03;54.41;101423.50;10582124;28;19924;-63
2023/05/14 16:33:21;;;;;;;;;;;;;;;20.93;55.13;101425.28;10581823;28;19970;-63
2023/05/14 16:38:23;;;;;;;;;;;;;;;21.19;53.66;101424.75;10582313;28;20390;-63
2023/05/14 16:43:26;;;;;;;;;;;;;;;21.23;55.24;101419.00;10579457;28;20477;-63
2023/05/14 16:48:28;;;;;;;;;;;;;;;21.12;55.88;101427.13;10582131;28;20389;-62
2023/05/14 16:53:30;;;;;;;;;;;;;;;21.06;55.67;101430.34;10577534;28;19924;-62
2023/05/14 16:58:32;;;;;;;;;;;;;;;21.40;56.49;101424.53;10581601;28;19924;-62
2023/05/14 17:03:35;;;;;;;;;;;;;;;21.14;57.79;101422.50;10580162;28;20278;-62
2023/05/14 17:08:37;;;;;;;;;;;;;;;21.23;58.19;101418.13;10559662;28;19931;-62
2023/05/14 17:13:39;;;;;;;;;;;;;;;21.42;58.70;101422.59;10576963;28;20374;-63
2023/05/14 17:18:41;;;;;;;;;;;;;;;21.31;57.78;101418.25;10581303;28;19924;-63
2023/05/14 17:23:44;;;;;;;;;;;;;;;20.92;54.96;101419.16;10582158;28;19931;-62
2023/05/14 17:28:46;;;;;;;;;;;;;;;20.53;54.15;101424.41;10582060;28;19989;-63
2023/05/14 17:33:48;;;;;;;;;;;;;;;20.45;54.71;101415.44;10581256;28;20436;-62
2023/05/14 17:38:51;;;;;;;;;;;;;;;20.36;55.11;101420.63;10581242;28;19923;-63
2023/05/14 17:43:53;;;;;;;;;;;;;;;20.44;55.08;101427.88;10581065;28;20276;-63
2023/05/14 17:48:57;;;;;;;;;;;;;;;20.30;53.64;101426.47;10581712;28;19931;-63
2023/05/14 17:53:59;;;;;;;;;;;;;;;20.17;55.07;101433.84;10587382;28;19931;-63
2023/05/14 17:59:01;;;;;;;;;;;;;;;20.11;55.67;101437.91;10588516;28;20340;-63
2023/05/14 18:04:03;;;;;;;;;;;;;;;19.75;54.86;101434.78;10588910;28;19950;-63
2023/05/14 18:09:06;;;;;;;;;;;;;;;19.20;52.75;101437.66;10588750;28;19923;-62
2023/05/14 18:14:08;;;;;;;;;;;;;;;19.20;52.93;101434.16;10588497;28;19932;-63
2023/05/14 18:19:10;;;;;;;;;;;;;;;19.26;53.54;101441.63;10588422;28;19924;-64
2023/05/14 18:24:13;;;;;;;;;;;;;;;19.05;54.92;101444.25;10587542;28;19946;-62
2023/05/14 18:29:15;;;;;;;;;;;;;;;18.75;57.23;101453.75;10569995;28;19928;-62
2023/05/14 18:34:17;;;;;;;;;;;;;;;18.98;60.54;101446.59;10579136;28;19923;-62
2023/05/14 18:39:20;;;;;;;;;;;;;;;18.63;66.09;101449.44;10586908;28;19973;-62
2023/05/14 18:44:22;;;;;;;;;;;;;;;18.56;69.93;101457.91;10586077;28;19923;-63
2023/05/14 18:49:24;;;;;;;;;;;;;;;18.18;77.47;101469.75;10583822;28;19969;-64
2023/05/14 18:54:26;;;;;;;;;;;;;;;17.96;80.89;101460.00;10586660;28;19928;-64
2023/05/14 18:59:29;;;;;;;;;;;;;;;18.30;79.98;101457.31;10585906;28;20267;-63
2023/05/14 19:04:31;;;;;;;;;;;;;;;17.80;82.11;101470.91;10585430;28;20320;-64
2023/05/14 19:09:34;;;;;;;;;;;;;;;17.72;82.24;101465.38;10583942;28;19950;-64
2023/05/14 19:14:36;;;;;;;;;;;;;;;17.68;82.24;101471.00;10585367;28;20329;-63
2023/05/14 19:19:39;;;;;;;;;;;;;;;17.67;82.39;101474.59;10583287;28;19977;-63
2023/05/14 19:24:42;;;;;;;;;;;;;;;17.33;85.46;101482.47;10546257;28;19930;-64
2023/05/14 19:29:44;;;;;;;;;;;;;;;17.46;84.65;101478.78;10583396;28;19931;-63
2023/05/14 19:34:46;;;;;;;;;;;;;;;17.31;84.62;101479.94;10582811;28;20306;-64
2023/05/14 19:39:49;;;;;;;;;;;;;;;17.35;85.36;101491.13;10582997;28;19924;-64
2023/05/14 19:44:53;;;;;;;;;;;;;;;16.97;86.61;101495.69;10584230;28;19924;-63
2023/05/14 19:49:55;;;;;;;;;;;;;;;16.45;88.48;101500.25;10582120;28;20051;-63
2023/05/14 19:54:57;;;;;;;;;;;;;;;16.44;88.88;101508.28;10583718;28;19969;-63
2023/05/14 19:59:59;;;;;;;;;;;;;;;16.65;86.80;101511.22;10584051;28;19924;-63
2023/05/14 20:05:02;;;;;;;;;;;;;;;15.98;92.45;101515.00;10580229;28;19924;-64
2023/05/14 20:10:04;;;;;;;;;;;;;;;16.17;90.21;101504.00;10576095;28;20378;-64
2023/05/14 20:15:07;;;;;;;;;;;;;;;15.97;91.51;101510.69;10581180;28;19928;-63
2023/05/14 20:20:10;;;;;;;;;;;;;;;16.15;90.55;101497.97;10579672;28;19977;-63
2023/05/14 20:25:13;;;;;;;;;;;;;;;15.95;90.73;101499.34;10581241;28;19924;-63
2023/05/14 20:30:15;;;;;;;;;;;;;;;15.74;92.26;101502.50;10559500;28;20328;-63
2023/05/14 20:35:17;;;;;;;;;;;;;;;15.46;91.86;101505.31;10581337;28;20040;-63
2023/05/14 20:40:20;;;;;;;;;;;;;;;15.50;93.56;101509.41;10574516;27;20374;-63
2023/05/14 20:45:22;;;;;;;;;;;;;;;15.66;89.53;101507.44;10540460;28;20367;-63
2023/05/14 20:50:26;;;;;;;;;;;;;;;15.60;88.56;101521.91;10540002;28;19924;-63
2023/05/14 20:55:28;;;;;;;;;;;;;;;15.64;89.22;101519.91;10564234;28;20313;-63
2023/05/14 21:00:31;;;;;;;;;;;;;;;15.27;90.14;101511.81;10562758;28;19931;-63
2023/05/14 21:05:33;;;;;;;;;;;;;;;15.17;91.37;101511.56;10581623;28;19923;-63
2023/05/14 21:10:35;;;;;;;;;;;;;;;15.40;89.77;101496.00;10579744;28;20378;-63
2023/05/14 21:15:37;;;;;;;;;;;;;;;15.40;89.26;101493.38;10581508;28;20370;-62
2023/05/14 21:20:40;;;;;;;;;;;;;;;15.01;92.07;101506.44;10579929;28;19924;-63
2023/05/14 21:25:42;;;;;;;;;;;;;;;14.76;94.15;101503.69;10581523;28;20366;-63
2023/05/14 21:30:44;;;;;;;;;;;;;;;14.78;95.03;101501.81;10572187;28;19969;-63
2023/05/14 21:35:46;;;;;;;;;;;;;;;14.76;93.95;101508.94;10588732;28;19932;-63
2023/05/14 21:40:49;;;;;;;;;;;;;;;14.35;98.48;101493.94;10587632;28;19931;-63
2023/05/14 21:45:51;;;;;;;;;;;;;;;14.64;97.11;101489.50;10589504;28;19924;-63
2023/05/14 21:50:53;;;;;;;;;;;;;;;14.61;95.93;101490.53;10588834;28;20329;-63
2023/05/14 21:55:55;;;;;;;;;;;;;;;14.15;100.00;101482.84;10569253;28;19924;-63
2023/05/14 22:00:57;;;;;;;;;;;;;;;14.38;100.00;101477.94;10587363;28;19931;-63
2023/05/14 22:06:00;;;;;;;;;;;;;;;14.60;100.00;101475.66;10570105;28;20295;-63
2023/05/14 22:11:02;;;;;;;;;;;;;;;14.29;99.69;101468.84;10587164;28;20264;-63
2023/05/14 22:16:06;;;;;;;;;;;;;;;13.84;100.00;101475.97;10587650;28;20282;-63
2023/05/14 22:21:14;;;;;;;;;;;;;;;14.06;100.00;101471.09;10584128;28;19977;-63
2023/05/14 22:26:16;;;;;;;;;;;;;;;13.96;100.00;101462.06;10587285;28;20316;-63
2023/05/14 22:31:18;;;;;;;;;;;;;;;14.03;100.00;101462.53;10568249;28;19923;-62
2023/05/14 22:36:20;;;;;;;;;;;;;;;13.70;100.00;101466.25;10587259;28;19963;-63
2023/05/14 22:41:23;;;;;;;;;;;;;;;13.84;100.00;101466.28;10584412;28;19924;-63
2023/05/14 22:46:25;;;;;;;;;;;;;;;13.66;100.00;101457.72;10586444;28;19924;-63
2023/05/14 22:51:27;;;;;;;;;;;;;;;13.65;100.00;101456.03;10586807;28;19942;-63
2023/05/14 22:56:29;;;;;;;;;;;;;;;13.71;100.00;101441.66;10585184;28;19923;-63
2023/05/14 23:01:32;;;;;;;;;;;;;;;13.70;100.00;101439.94;10566745;28;19924;-63
2023/05/14 23:06:34;;;;;;;;;;;;;;;13.69;100.00;101441.75;10586375;28;19924;-62
2023/05/14 23:11:36;;;;;;;;;;;;;;;13.32;100.00;101449.19;10585565;28;20294;-63
2023/05/14 23:16:38;;;;;;;;;;;;;;;13.20;100.00;101449.88;10582721;28;20374;-63
2023/05/14 23:21:41;;;;;;;;;;;;;;;13.35;100.00;101437.66;10584358;28;19930;-63
2023/05/14 23:26:43;;;;;;;;;;;;;;;13.15;100.00;101441.41;10584924;28;19923;-63
2023/05/14 23:31:45;;;;;;;;;;;;;;;13.00;100.00;101432.63;10584692;28;20375;-63
2023/05/14 23:36:47;;;;;;;;;;;;;;;13.18;100.00;101425.47;10584072;28;19973;-63
2023/05/14 23:41:50;;;;;;;;;;;;;;;13.02;100.00;101426.34;10565764;28;19923;-63
2023/05/14 23:46:52;;;;;;;;;;;;;;;13.20;100.00;101427.06;10566060;28;19923;-63
2023/05/14 23:51:54;;;;;;;;;;;;;;;13.27;100.00;101403.88;10565451;28;19923;-64
2023/05/14 23:56:56;;;;;;;;;;;;;;;13.13;100.00;101407.31;10582824;28;19924;-63
